createdAt,value
2023-07-03T00:02:06.026Z,94637.34
2023-07-03T00:04:36.821Z,94629.16
2023-07-03T00:07:04.247Z,94644.19
2023-07-03T00:09:30.884Z,94641.91
2023-07-03T00:11:57.542Z,94643.97
2023-07-03T00:14:24.399Z,94640.69
2023-07-03T00:16:51.148Z,94637.41
2023-07-03T00:19:19.504Z,94643.69
2023-07-03T00:21:46.138Z,94636.50
2023-07-03T00:24:14.106Z,94635.63
2023-07-03T00:26:41.146Z,94640.69
2023-07-03T00:29:07.797Z,94644.47
2023-07-03T00:31:34.469Z,94639.59
2023-07-03T00:34:01.187Z,94637.81
2023-07-03T00:36:29.156Z,94635.41
2023-07-03T00:38:58.452Z,94642.38
2023-07-03T00:41:25.240Z,94636.81
2023-07-03T00:43:52.318Z,94633.53
2023-07-03T00:46:19.069Z,94634.22
2023-07-03T00:48:46.860Z,94634.22
2023-07-03T00:51:15.668Z,94635.31
2023-07-03T00:53:44.514Z,94631.69
2023-07-03T00:56:11.504Z,94634.81
2023-07-03T00:58:38.262Z,94632.94
2023-07-03T01:01:16.603Z,94635.63
2023-07-03T01:03:45.836Z,94640.19
2023-07-03T01:06:20.031Z,94631.34
2023-07-03T01:08:50.993Z,94634.13
2023-07-03T01:11:20.368Z,94631.94
2023-07-03T01:13:49.622Z,94634.53
2023-07-03T01:16:17.039Z,94631.19
2023-07-03T01:18:45.951Z,94627.91
2023-07-03T01:21:17.605Z,94632.94
2023-07-03T01:23:52.994Z,94627.34
2023-07-03T01:26:22.788Z,94625.66
2023-07-03T01:28:54.644Z,94632.09
2023-07-03T01:31:22.814Z,94627.22
2023-07-03T01:33:50.264Z,94627.16
2023-07-03T01:36:18.460Z,94631.00
2023-07-03T01:38:46.971Z,94623.97
2023-07-03T01:41:16.046Z,94623.81
2023-07-03T01:43:45.375Z,94631.69
2023-07-03T01:46:11.966Z,94628.72
2023-07-03T01:48:38.615Z,94627.41
2023-07-03T01:51:07.867Z,94628.50
2023-07-03T01:53:44.598Z,94620.03
2023-07-03T01:56:19.922Z,94626.50
2023-07-03T01:58:50.681Z,94628.69
2023-07-03T02:01:23.264Z,94619.03
2023-07-03T02:03:54.074Z,94622.97
2023-07-03T02:06:24.400Z,94623.63
2023-07-03T02:08:52.839Z,94620.94
2023-07-03T02:11:21.732Z,94617.44
2023-07-03T02:13:49.857Z,94613.16
2023-07-03T02:16:16.999Z,94620.84
2023-07-03T02:18:44.057Z,94622.19
2023-07-03T02:21:10.806Z,94622.69
2023-07-03T02:23:37.581Z,94620.09
2023-07-03T02:26:04.240Z,94622.69
2023-07-03T02:28:30.932Z,94625.34
2023-07-03T02:30:58.980Z,94629.44
2023-07-03T02:33:25.649Z,94607.94
2023-07-03T02:35:52.582Z,94621.38
2023-07-03T02:38:19.493Z,94618.41
2023-07-03T02:40:47.826Z,94620.09
2023-07-03T02:43:15.401Z,94616.41
2023-07-03T02:45:43.230Z,94627.25
2023-07-03T02:48:12.137Z,94616.31
2023-07-03T02:50:38.857Z,94625.06
2023-07-03T02:53:05.600Z,94620.78
2023-07-03T02:55:32.283Z,94607.75
2023-07-03T02:57:59.242Z,94610.22
2023-07-03T03:00:26.346Z,94611.03
2023-07-03T03:02:53.187Z,94617.50
2023-07-03T03:05:21.357Z,94612.28
2023-07-03T03:07:48.126Z,94616.88
2023-07-03T03:10:14.712Z,94609.31
2023-07-03T03:12:41.320Z,94618.88
2023-07-03T03:15:08.678Z,94616.38
2023-07-03T03:17:35.358Z,94619.78
2023-07-03T03:20:02.047Z,94623.72
2023-07-03T03:22:29.996Z,94620.44
2023-07-03T03:24:56.601Z,94618.81
2023-07-03T03:27:23.244Z,94623.50
2023-07-03T03:29:51.796Z,94625.69
2023-07-03T03:32:18.955Z,94622.03
2023-07-03T03:34:45.937Z,94627.41
2023-07-03T03:37:12.550Z,94632.91
2023-07-03T03:39:40.538Z,94636.00
2023-07-03T03:42:07.386Z,94624.34
2023-07-03T03:44:34.734Z,94633.28
2023-07-03T03:47:01.427Z,94628.84
2023-07-03T03:49:28.099Z,94624.31
2023-07-03T03:51:54.759Z,94622.97
2023-07-03T03:54:21.924Z,94629.59
2023-07-03T03:56:49.965Z,94631.59
2023-07-03T03:59:18.126Z,94635.72
2023-07-03T04:01:44.787Z,94638.75
2023-07-03T04:04:11.512Z,94639.56
2023-07-03T04:06:39.223Z,94640.16
2023-07-03T04:09:06.459Z,94637.78
2023-07-03T04:11:33.206Z,94637.66
2023-07-03T04:14:01.449Z,94640.63
2023-07-03T04:16:30.883Z,94640.00
2023-07-03T04:18:57.697Z,94636.97
2023-07-03T04:21:24.396Z,94644.38
2023-07-03T04:23:51.015Z,94645.44
2023-07-03T04:26:17.616Z,94633.63
2023-07-03T04:28:44.418Z,94645.94
2023-07-03T04:31:12.403Z,94644.50
2023-07-03T04:33:39.069Z,94645.13
2023-07-03T04:36:06.030Z,94647.28
2023-07-03T04:38:32.664Z,94643.41
2023-07-03T04:40:59.401Z,94650.19
2023-07-03T04:43:26.119Z,94648.63
2023-07-03T04:45:54.526Z,94637.09
2023-07-03T04:48:23.087Z,94636.28
2023-07-03T04:50:51.003Z,94637.94
2023-07-03T04:53:21.944Z,94643.63
2023-07-03T04:55:49.503Z,94637.34
2023-07-03T04:58:16.515Z,94637.84
2023-07-03T05:00:43.326Z,94644.53
2023-07-03T05:03:10.497Z,94645.03
2023-07-03T05:05:38.614Z,94646.63
2023-07-03T05:08:05.644Z,94654.75
2023-07-03T05:10:32.375Z,94654.41
2023-07-03T05:12:59.013Z,94647.44
2023-07-03T05:15:26.207Z,94652.59
2023-07-03T05:17:56.274Z,94659.84
2023-07-03T05:20:23.583Z,94659.13
2023-07-03T05:22:51.595Z,94663.41
2023-07-03T05:25:19.564Z,94664.63
2023-07-03T05:27:47.363Z,94662.44
2023-07-03T05:30:14.256Z,94656.28
2023-07-03T05:32:41.169Z,94665.22
2023-07-03T05:35:09.117Z,94661.00
2023-07-03T05:37:37.648Z,94667.19
2023-07-03T05:40:08.426Z,94674.06
2023-07-03T05:42:35.787Z,94672.19
2023-07-03T05:45:02.705Z,94677.03
2023-07-03T05:47:31.666Z,94680.22
2023-07-03T05:49:58.836Z,94687.16
2023-07-03T05:52:25.956Z,94680.63
2023-07-03T05:54:52.606Z,94687.31
2023-07-03T05:57:20.749Z,94683.50
2023-07-03T05:59:48.716Z,94685.38
2023-07-03T06:02:15.988Z,94684.38
2023-07-03T06:04:42.853Z,94694.56
2023-07-03T06:07:10.177Z,94694.63
2023-07-03T06:09:37.016Z,94694.91
2023-07-03T06:12:05.296Z,94701.50
2023-07-03T06:14:33.506Z,94703.09
2023-07-03T06:17:01.069Z,94704.34
2023-07-03T06:19:29.124Z,94705.34
2023-07-03T06:21:55.906Z,94704.06
2023-07-03T06:24:22.546Z,94708.25
2023-07-03T06:26:49.211Z,94699.94
2023-07-03T06:29:16.027Z,94708.00
2023-07-03T06:31:44.222Z,94704.97
2023-07-03T06:34:10.806Z,94710.44
2023-07-03T06:36:37.490Z,94709.47
2023-07-03T06:39:05.926Z,94710.06
2023-07-03T06:41:37.948Z,94709.50
2023-07-03T06:44:05.951Z,94710.69
2023-07-03T06:46:32.867Z,94716.66
2023-07-03T06:49:00.917Z,94712.63
2023-07-03T06:51:27.600Z,94720.16
2023-07-03T06:53:54.479Z,94713.13
2023-07-03T06:56:22.319Z,94723.06
2023-07-03T06:58:50.257Z,94723.06
2023-07-03T07:01:18.922Z,94718.41
2023-07-03T07:03:46.298Z,94721.59
2023-07-03T07:06:16.399Z,94717.31
2023-07-03T07:08:43.953Z,94717.97
2023-07-03T07:11:12.369Z,94718.41
2023-07-03T07:13:41.042Z,94717.84
2023-07-03T07:16:12.134Z,94712.56
2023-07-03T07:18:38.834Z,94709.94
2023-07-03T07:21:05.569Z,94717.19
2023-07-03T07:23:33.771Z,94709.88
2023-07-03T07:26:00.403Z,94710.16
2023-07-03T07:28:27.072Z,94702.88
2023-07-03T07:30:53.852Z,94709.63
2023-07-03T07:33:22.001Z,94703.97
2023-07-03T07:35:48.875Z,94709.50
2023-07-03T07:38:16.020Z,94705.44
2023-07-03T07:40:44.300Z,94706.97
2023-07-03T07:43:10.989Z,94704.75
2023-07-03T07:45:38.617Z,94705.56
2023-07-03T07:48:06.049Z,94709.56
2023-07-03T07:50:35.330Z,94709.03
2023-07-03T07:53:01.999Z,94710.50
2023-07-03T07:55:28.754Z,94718.47
2023-07-03T07:57:56.759Z,94709.78
2023-07-03T08:00:23.655Z,94708.38
2023-07-03T08:02:50.392Z,94707.66
2023-07-03T08:05:17.109Z,94707.38
2023-07-03T08:07:43.747Z,94709.47
2023-07-03T08:10:11.275Z,94704.97
2023-07-03T08:12:37.970Z,94706.88
2023-07-03T08:15:07.256Z,94709.34
2023-07-03T08:17:34.044Z,94711.47
2023-07-03T08:20:00.962Z,94717.09
2023-07-03T08:22:28.665Z,94713.13
2023-07-03T08:24:55.419Z,94725.44
2023-07-03T08:27:22.131Z,94715.81
2023-07-03T08:29:48.756Z,94717.91
2023-07-03T08:32:16.753Z,94712.84
2023-07-03T08:37:08.234Z,94720.38
2023-07-03T08:37:30.424Z,94719.28
2023-07-03T08:39:57.232Z,94719.28
2023-07-03T08:42:27.884Z,94722.75
2023-07-03T08:44:55.302Z,94716.84
2023-07-03T08:47:27.238Z,94713.25
2023-07-03T08:49:55.280Z,94714.41
2023-07-03T08:52:27.067Z,94718.13
2023-07-03T08:54:54.993Z,94717.47
2023-07-03T08:57:21.837Z,94715.88
2023-07-03T08:59:48.983Z,94718.19
2023-07-03T09:02:23.627Z,94728.34
2023-07-03T09:05:06.911Z,94729.47
2023-07-03T09:07:39.646Z,94733.13
2023-07-03T09:10:14.620Z,94736.63
2023-07-03T09:12:46.569Z,94737.50
2023-07-03T09:15:18.923Z,94738.28
2023-07-03T09:17:47.214Z,94735.25
2023-07-03T09:20:17.164Z,94732.16
2023-07-03T09:22:50.199Z,94733.78
2023-07-03T09:25:22.214Z,94739.56
2023-07-03T09:27:54.487Z,94736.25
2023-07-03T09:30:21.195Z,94729.44
2023-07-03T09:32:47.847Z,94739.38
2023-07-03T09:35:17.683Z,94734.09
2023-07-03T09:37:47.737Z,94728.81
2023-07-03T09:40:19.162Z,94736.97
2023-07-03T09:42:47.679Z,94738.78
2023-07-03T09:45:18.853Z,94732.97
2023-07-03T09:47:50.359Z,94737.03
2023-07-03T09:50:24.105Z,94743.41
2023-07-03T09:55:26.942Z,94738.00
2023-07-03T09:57:53.809Z,94739.00
2023-07-03T10:00:22.386Z,94740.41
2023-07-03T10:08:03.250Z,94740.84
2023-07-03T10:13:10.351Z,94740.97
2023-07-03T10:15:40.385Z,94737.19
2023-07-03T10:18:12.625Z,94732.19
2023-07-03T10:20:45.127Z,94743.63
2023-07-03T10:23:17.335Z,94748.06
2023-07-03T10:25:49.660Z,94746.25
2023-07-03T10:28:22.392Z,94747.09
2023-07-03T10:30:53.613Z,94739.78
2023-07-03T10:33:27.938Z,94748.28
2023-07-03T10:35:56.896Z,94749.75
2023-07-03T10:38:31.503Z,94748.84
2023-07-03T10:41:04.193Z,94748.56
2023-07-03T10:43:36.611Z,94745.31
2023-07-03T10:46:07.697Z,94742.06
2023-07-03T10:48:36.915Z,94743.06
2023-07-03T10:51:13.974Z,94744.88
2023-07-03T10:53:45.850Z,94748.28
2023-07-03T10:56:20.086Z,94741.41
2023-07-03T10:58:55.191Z,94741.53
2023-07-03T11:01:27.141Z,94745.41
2023-07-03T11:04:23.159Z,94739.94
2023-07-03T11:07:03.778Z,94740.88
2023-07-03T11:09:40.845Z,94733.03
2023-07-03T11:12:20.386Z,94739.56
2023-07-03T11:14:55.750Z,94736.97
2023-07-03T11:17:33.703Z,94731.59
2023-07-03T11:20:06.629Z,94732.72
2023-07-03T11:22:44.930Z,94735.72
2023-07-03T11:25:21.837Z,94729.25
2023-07-03T11:28:02.295Z,94734.19
2023-07-03T11:30:29.638Z,94727.06
2023-07-03T11:32:58.543Z,94727.22
2023-07-03T11:40:38.911Z,94737.81
2023-07-03T11:43:34.460Z,94726.75
2023-07-03T11:46:24.598Z,94727.06
2023-07-03T11:48:56.864Z,94729.25
2023-07-03T11:51:35.300Z,94723.50
2023-07-03T11:54:16.632Z,94729.97
2023-07-03T11:56:53.145Z,94726.13
2023-07-03T11:59:30.066Z,94722.47
2023-07-03T12:02:44.959Z,94724.50
2023-07-03T12:05:12.653Z,94728.06
2023-07-03T12:07:49.684Z,94727.19
2023-07-03T12:10:41.330Z,94729.94
2023-07-03T12:13:27.728Z,94722.59
2023-07-03T12:15:56.874Z,94711.56
2023-07-03T12:18:23.764Z,94717.22
2023-07-03T12:20:57.501Z,94716.78
2023-07-03T12:23:38.346Z,94714.91
2023-07-03T12:26:09.137Z,94716.41
2023-07-03T12:28:36.370Z,94713.44
2023-07-03T12:31:11.766Z,94718.94
2023-07-03T12:33:48.998Z,94711.50
2023-07-03T12:36:21.547Z,94707.84
2023-07-03T12:38:48.261Z,94710.75
2023-07-03T12:41:22.396Z,94707.28
2023-07-03T12:43:56.579Z,94711.91
2023-07-03T12:46:36.560Z,94714.19
2023-07-03T12:49:05.686Z,94708.44
2023-07-03T12:51:37.578Z,94702.69
2023-07-03T12:54:04.384Z,94699.75
2023-07-03T12:56:34.137Z,94704.97
2023-07-03T12:59:00.904Z,94712.28
2023-07-03T13:01:28.087Z,94702.94
2023-07-03T13:03:54.759Z,94699.66
2023-07-03T13:06:25.005Z,94705.25
2023-07-03T13:08:53.005Z,94697.63
2023-07-03T13:11:37.673Z,94702.50
2023-07-03T13:14:12.305Z,94704.06
2023-07-03T13:16:40.208Z,94684.03
2023-07-03T13:19:07.226Z,94700.25
2023-07-03T13:21:35.971Z,94703.06
2023-07-03T13:24:10.822Z,94702.66
2023-07-03T13:26:39.847Z,94698.56
2023-07-03T13:29:07.520Z,94705.13
2023-07-03T13:31:50.764Z,94708.03
2023-07-03T13:34:21.890Z,94698.66
2023-07-03T13:37:01.224Z,94700.75
2023-07-03T13:39:28.888Z,94704.94
2023-07-03T13:41:57.904Z,94702.34
2023-07-03T13:44:25.921Z,94701.06
2023-07-03T13:46:54.576Z,94703.16
2023-07-03T13:49:22.024Z,94703.66
2023-07-03T13:51:50.243Z,94710.13
2023-07-03T13:54:17.783Z,94693.44
2023-07-03T13:56:44.804Z,94690.59
2023-07-03T13:59:13.148Z,94689.63
2023-07-03T14:01:41.814Z,94686.81
2023-07-03T14:04:09.445Z,94685.31
2023-07-03T14:06:36.334Z,94683.56
2023-07-03T14:09:03.639Z,94686.44
2023-07-03T14:11:30.481Z,94691.09
2023-07-03T14:13:57.271Z,94680.34
2023-07-03T14:16:26.480Z,94679.66
2023-07-03T14:18:53.256Z,94679.66
2023-07-03T14:21:22.586Z,94673.16
2023-07-03T14:23:49.902Z,94673.50
2023-07-03T14:26:17.385Z,94666.78
2023-07-03T14:28:46.465Z,94666.81
2023-07-03T14:31:15.250Z,94662.03
2023-07-03T14:33:43.496Z,94659.22
2023-07-03T14:36:11.326Z,94663.81
2023-07-03T14:38:38.176Z,94654.03
2023-07-03T14:41:05.167Z,94656.94
2023-07-03T14:43:31.983Z,94657.44
2023-07-03T14:45:59.182Z,94646.69
2023-07-03T14:48:25.813Z,94648.97
2023-07-03T14:50:53.779Z,94648.00
2023-07-03T14:53:20.493Z,94645.78
2023-07-03T14:55:53.205Z,94650.56
2023-07-03T14:58:19.883Z,94638.22
2023-07-03T15:00:47.434Z,94632.78
2023-07-03T15:03:14.151Z,94639.63
2023-07-03T15:05:41.058Z,94643.00
2023-07-03T15:08:09.194Z,94637.47
2023-07-03T15:10:35.944Z,94635.53
2023-07-03T15:13:02.719Z,94639.63
2023-07-03T15:15:32.414Z,94625.25
2023-07-03T15:17:59.099Z,94631.13
2023-07-03T15:20:25.762Z,94630.03
2023-07-03T15:22:53.131Z,94622.44
2023-07-03T15:25:21.657Z,94618.38
2023-07-03T15:27:48.268Z,94614.91
2023-07-03T15:30:15.049Z,94619.03
2023-07-03T15:32:41.662Z,94622.91
2023-07-03T15:35:08.945Z,94622.06
2023-07-03T15:37:35.549Z,94621.66
2023-07-03T15:40:03.999Z,94624.88
2023-07-03T15:42:31.989Z,94616.00
2023-07-03T15:44:59.052Z,94615.94
2023-07-03T15:47:26.591Z,94615.81
2023-07-03T15:49:56.612Z,94605.53
2023-07-03T15:52:23.651Z,94610.22
2023-07-03T15:54:51.546Z,94602.50
2023-07-03T15:57:18.981Z,94601.97
2023-07-03T15:59:47.218Z,94612.88
2023-07-03T16:02:13.906Z,94612.56
2023-07-03T16:04:42.653Z,94612.94
2023-07-03T16:07:09.634Z,94616.66
2023-07-03T16:09:36.271Z,94608.16
2023-07-03T16:12:03.088Z,94621.69
2023-07-03T16:14:29.844Z,94625.13
2023-07-03T16:16:57.881Z,94626.78
2023-07-03T16:19:24.629Z,94621.81
2023-07-03T16:21:51.272Z,94614.41
2023-07-03T16:24:17.937Z,94620.22
2023-07-03T16:26:44.577Z,94626.34
2023-07-03T16:29:11.502Z,94637.84
2023-07-03T16:31:40.487Z,94636.13
2023-07-03T16:34:09.112Z,94636.56
2023-07-03T16:36:35.763Z,94634.38
2023-07-03T16:39:04.797Z,94636.09
2023-07-03T16:41:35.185Z,94638.38
2023-07-03T16:44:02.289Z,94634.78
2023-07-03T16:46:29.702Z,94639.88
2023-07-03T16:48:57.983Z,94643.84
2023-07-03T16:51:27.503Z,94649.44
2023-07-03T16:53:54.164Z,94644.84
2023-07-03T16:56:25.454Z,94653.94
2023-07-03T16:58:54.189Z,94642.75
2023-07-03T17:01:22.606Z,94638.16
2023-07-03T17:03:51.109Z,94628.19
2023-07-03T17:06:20.066Z,94632.19
2023-07-03T17:08:49.054Z,94635.41
2023-07-03T17:11:16.182Z,94640.16
2023-07-03T17:13:43.000Z,94634.56
2023-07-03T17:16:10.014Z,94641.84
2023-07-03T17:18:36.736Z,94639.88
2023-07-03T17:21:03.673Z,94632.41
2023-07-03T17:23:31.084Z,94633.88
2023-07-03T17:25:59.139Z,94632.09
2023-07-03T17:28:25.774Z,94635.88
2023-07-03T17:30:52.571Z,94631.00
2023-07-03T17:33:19.311Z,94637.19
2023-07-03T17:35:46.171Z,94632.09
2023-07-03T17:38:13.330Z,94635.59
2023-07-03T17:40:40.185Z,94641.34
2023-07-03T17:43:08.206Z,94644.03
2023-07-03T17:45:35.673Z,94638.78
2023-07-03T17:48:02.507Z,94635.78
2023-07-03T17:50:29.509Z,94631.97
2023-07-03T17:52:56.222Z,94635.97
2023-07-03T17:55:23.114Z,94636.47
2023-07-03T17:57:49.803Z,94640.75
2023-07-03T18:00:18.558Z,94637.84
2023-07-03T18:02:45.230Z,94640.59
2023-07-03T18:05:12.070Z,94642.59
2023-07-03T18:07:38.703Z,94641.84
2023-07-03T18:10:06.581Z,94638.31
2023-07-03T18:12:33.225Z,94643.41
2023-07-03T18:14:59.825Z,94631.34
2023-07-03T18:17:29.062Z,94625.06
2023-07-03T18:19:55.756Z,94637.00
2023-07-03T18:22:22.454Z,94638.78
2023-07-03T18:24:49.143Z,94644.34
2023-07-03T18:27:15.796Z,94647.84
2023-07-03T18:29:42.460Z,94633.09
2023-07-03T18:32:11.237Z,94647.22
2023-07-03T18:34:39.360Z,94643.75
2023-07-03T18:37:06.034Z,94648.81
2023-07-03T18:39:33.006Z,94655.31
2023-07-03T18:41:59.849Z,94650.91
2023-07-03T18:44:27.320Z,94642.34
2023-07-03T18:46:54.113Z,94644.22
2023-07-03T18:49:20.839Z,94645.34
2023-07-03T18:51:50.764Z,94641.53
2023-07-03T18:54:17.659Z,94645.34
2023-07-03T18:56:44.335Z,94645.34
2023-07-03T18:59:11.000Z,94650.72
2023-07-03T19:01:38.633Z,94655.81
2023-07-03T19:04:05.612Z,94651.81
2023-07-03T19:06:32.611Z,94652.63
2023-07-03T19:09:00.714Z,94656.91
2023-07-03T19:11:28.112Z,94660.69
2023-07-03T19:13:54.871Z,94666.88
2023-07-03T19:16:21.801Z,94666.06
2023-07-03T19:18:49.589Z,94662.88
2023-07-03T19:21:17.461Z,94666.88
2023-07-03T19:23:44.407Z,94676.06
2023-07-03T19:26:12.502Z,94677.34
2023-07-03T19:28:39.786Z,94677.16
2023-07-03T19:31:06.854Z,94692.28
2023-07-03T19:33:33.595Z,94696.16
2023-07-03T19:36:00.936Z,94706.16
2023-07-03T19:38:28.256Z,94700.81
2023-07-03T19:40:54.901Z,94714.66
2023-07-03T19:43:22.973Z,94716.25
2023-07-03T19:45:50.335Z,94719.72
2023-07-03T19:48:17.907Z,94708.56
2023-07-03T19:50:44.698Z,94722.53
2023-07-03T19:53:13.946Z,94723.72
2023-07-03T19:55:41.005Z,94726.13
2023-07-03T19:58:08.031Z,94726.94
2023-07-03T20:00:36.056Z,94723.34
2023-07-03T20:03:03.942Z,94713.06
2023-07-03T20:05:35.103Z,94720.84
2023-07-03T20:08:01.939Z,94724.63
2023-07-03T20:10:28.759Z,94726.22
2023-07-03T20:12:55.515Z,94722.72
2023-07-03T20:15:22.731Z,94725.72
2023-07-03T20:17:51.354Z,94722.22
2023-07-03T20:20:18.102Z,94716.84
2023-07-03T20:22:45.485Z,94716.06
2023-07-03T20:25:12.341Z,94713.66
2023-07-03T20:27:39.162Z,94718.75
2023-07-03T20:30:07.252Z,94724.13
2023-07-03T20:32:35.167Z,94719.34
2023-07-03T20:35:06.209Z,94716.06
2023-07-03T20:37:33.512Z,94717.66
2023-07-03T20:40:01.080Z,94717.22
2023-07-03T20:42:28.472Z,94728.72
2023-07-03T20:44:56.476Z,94715.56
2023-07-03T20:47:24.014Z,94720.16
2023-07-03T20:49:50.802Z,94722.84
2023-07-03T20:52:20.319Z,94719.34
2023-07-03T20:55:05.807Z,94724.94
2023-07-03T20:57:34.516Z,94718.25
2023-07-03T21:00:01.443Z,94719.03
2023-07-03T21:02:28.611Z,94726.09
2023-07-03T21:04:55.991Z,94718.84
2023-07-03T21:07:24.060Z,94714.25
2023-07-03T21:09:51.008Z,94717.75
2023-07-03T21:12:17.639Z,94723.13
2023-07-03T21:14:44.326Z,94724.72
2023-07-03T21:17:12.269Z,94718.44
2023-07-03T21:19:39.021Z,94714.75
2023-07-03T21:22:06.228Z,94722.13
2023-07-03T21:24:34.316Z,94717.34
2023-07-03T21:27:01.126Z,94721.91
2023-07-03T21:29:27.775Z,94729.19
2023-07-03T21:31:54.508Z,94727.81
2023-07-03T21:34:21.147Z,94734.19
2023-07-03T21:36:47.866Z,94740.47
2023-07-03T21:39:14.558Z,94734.59
2023-07-03T21:41:43.122Z,94735.38
2023-07-03T21:44:12.244Z,94742.34
2023-07-03T21:46:38.927Z,94738.88
2023-07-03T21:49:05.586Z,94740.16
2023-07-03T21:51:32.308Z,94744.84
2023-07-03T21:53:59.530Z,94741.06
2023-07-03T21:56:30.984Z,94749.03
2023-07-03T21:59:00.879Z,94737.78
2023-07-03T22:01:31.053Z,94748.75
2023-07-03T22:03:58.330Z,94746.53
2023-07-03T22:06:26.842Z,94748.84
2023-07-03T22:08:54.311Z,94748.63
2023-07-03T22:11:20.936Z,94749.53
2023-07-03T22:13:47.670Z,94751.44
2023-07-03T22:16:16.888Z,94749.53
2023-07-03T22:18:43.878Z,94755.53
2023-07-03T22:21:11.131Z,94762.78
2023-07-03T22:23:37.769Z,94760.00
2023-07-03T22:26:04.405Z,94748.34
2023-07-03T22:28:31.321Z,94746.44
2023-07-03T22:30:58.849Z,94743.97
2023-07-03T22:33:26.964Z,94739.56
2023-07-03T22:35:54.111Z,94741.88
2023-07-03T22:38:21.217Z,94728.91
2023-07-03T22:40:49.856Z,94725.63
2023-07-03T22:43:16.467Z,94734.00
2023-07-03T22:45:43.088Z,94734.44
2023-07-03T22:48:10.347Z,94732.81
2023-07-03T22:50:41.045Z,94728.09
2023-07-03T22:53:08.038Z,94727.72
2023-07-03T22:55:39.088Z,94726.50
2023-07-03T22:58:05.722Z,94734.00
2023-07-03T23:00:33.024Z,94733.69
2023-07-03T23:02:59.672Z,94727.22
2023-07-03T23:05:26.322Z,94730.09
2023-07-03T23:07:55.070Z,94731.59
2023-07-03T23:10:21.704Z,94731.41
2023-07-03T23:12:48.895Z,94726.72
2023-07-03T23:15:15.593Z,94719.53
2023-07-03T23:17:42.894Z,94735.19
2023-07-03T23:20:12.770Z,94736.38
2023-07-03T23:22:40.123Z,94736.09
2023-07-03T23:25:09.478Z,94741.38
2023-07-03T23:27:36.150Z,94739.06
2023-07-03T23:30:05.423Z,94741.75
2023-07-03T23:32:32.846Z,94726.91
2023-07-03T23:34:59.462Z,94740.16
2023-07-03T23:37:26.379Z,94732.50
2023-07-03T23:39:53.113Z,94741.75
2023-07-03T23:42:21.048Z,94740.16
2023-07-03T23:44:47.683Z,94746.16
2023-07-03T23:47:14.300Z,94755.31
2023-07-03T23:49:41.138Z,94749.22
2023-07-03T23:52:08.357Z,94746.75
2023-07-03T23:54:34.973Z,94740.38
2023-07-03T23:57:01.630Z,94737.13
2023-07-03T23:59:29.597Z,94734.63
